Decoded Metar for KY51 (VIROQUA MUNI AIRPORT in WI, USA) (IATA:N/A) | Meteo·Mobile Aviation Weather
aviador You're here:

KY51 Decoded Metar

VIROQUA MUNI AIRPORT in WI, USA
Report Time2018-12-12 01:55:00
UTC Time2018-12-12 01:56:17
Flight Rules vfr VFR
Wind120° at 07 kt
W.Rank120° ranks 21
Current wind is below 120° avg. (7.3)
Visibility9999 m
Phenomena:N/A
Clouds:N/A
Expected CloudBase > 800 ft AGL from Temp-Dew spread
CeilingNone
Temp-3°C (ISA -15)
Dew Point-5°C (86% RH)
AAT-8.1°C
QNH1013 hPa
Density Alt-538 ft
Elevation1,292 ft
Report Wrong Elevation
Raw Report
KY51 120155Z AUTO 12007KT 10SM CLR M03/M05 A2991 RMK AO1
T10321046=

Extra information for KY51:More info

Metar Taf Metar & Taf Last 4 Metars F.Rules Stats Wind Profile Meteogram Temp Stats Airport Information Weather charts Add Link Nearby VenuesMetar ALERT Operation Metar Decoded Social comments

AIRNAV info for KY51